sensor_id;sensor_type;location;lat;lon;timestamp;P1;durP1;ratioP1;P2;durP2;ratioP2
25207;SDS011;13153;52.316;21.166;2022-10-23T00:01:10;41.38;;;22.75;;
25207;SDS011;13153;52.316;21.166;2022-10-23T00:03:40;37.92;;;22.42;;
25207;SDS011;13153;52.316;21.166;2022-10-23T00:06:06;40.00;;;23.33;;
25207;SDS011;13153;52.316;21.166;2022-10-23T00:08:33;36.83;;;22.15;;
25207;SDS011;13153;52.316;21.166;2022-10-23T00:10:59;35.90;;;22.23;;
25207;SDS011;13153;52.316;21.166;2022-10-23T00:13:29;37.30;;;21.20;;
25207;SDS011;13153;52.316;21.166;2022-10-23T00:15:55;39.30;;;21.63;;
25207;SDS011;13153;52.316;21.166;2022-10-23T00:18:21;38.53;;;22.00;;
25207;SDS011;13153;52.316;21.166;2022-10-23T00:20:47;36.78;;;21.75;;
25207;SDS011;13153;52.316;21.166;2022-10-23T00:23:12;35.83;;;21.25;;
25207;SDS011;13153;52.316;21.166;2022-10-23T00:25:40;32.38;;;20.20;;
25207;SDS011;13153;52.316;21.166;2022-10-23T00:28:06;34.65;;;19.73;;
25207;SDS011;13153;52.316;21.166;2022-10-23T00:30:31;36.58;;;20.50;;
25207;SDS011;13153;52.316;21.166;2022-10-23T00:32:57;36.28;;;20.75;;
25207;SDS011;13153;52.316;21.166;2022-10-23T00:35:23;35.85;;;21.25;;
25207;SDS011;13153;52.316;21.166;2022-10-23T00:37:49;35.38;;;20.73;;
25207;SDS011;13153;52.316;21.166;2022-10-23T00:40:14;34.13;;;20.15;;
25207;SDS011;13153;52.316;21.166;2022-10-23T00:42:40;34.47;;;20.40;;
25207;SDS011;13153;52.316;21.166;2022-10-23T00:45:09;37.25;;;20.67;;
25207;SDS011;13153;52.316;21.166;2022-10-23T00:47:57;34.88;;;19.92;;
25207;SDS011;13153;52.316;21.166;2022-10-23T00:50:29;32.83;;;19.40;;
25207;SDS011;13153;52.316;21.166;2022-10-23T00:52:58;34.17;;;19.83;;
25207;SDS011;13153;52.316;21.166;2022-10-23T00:55:28;35.05;;;20.05;;
25207;SDS011;13153;52.316;21.166;2022-10-23T00:57:57;34.83;;;20.42;;
25207;SDS011;13153;52.316;21.166;2022-10-23T01:02:52;36.33;;;19.52;;
25207;SDS011;13153;52.316;21.166;2022-10-23T01:05:22;33.50;;;19.48;;
25207;SDS011;13153;52.316;21.166;2022-10-23T01:08:01;34.00;;;19.27;;
25207;SDS011;13153;52.316;21.166;2022-10-23T01:11:09;35.65;;;19.85;;
25207;SDS011;13153;52.316;21.166;2022-10-23T01:14:10;35.97;;;19.75;;
25207;SDS011;13153;52.316;21.166;2022-10-23T01:16:50;36.90;;;20.60;;
25207;SDS011;13153;52.316;21.166;2022-10-23T01:22:20;37.15;;;20.13;;
25207;SDS011;13153;52.316;21.166;2022-10-23T01:24:58;33.95;;;20.52;;
25207;SDS011;13153;52.316;21.166;2022-10-23T01:27:36;35.10;;;21.20;;
25207;SDS011;13153;52.316;21.166;2022-10-23T01:30:10;39.97;;;20.77;;
25207;SDS011;13153;52.316;21.166;2022-10-23T01:32:54;36.47;;;19.30;;
25207;SDS011;13153;52.316;21.166;2022-10-23T01:35:32;34.00;;;20.92;;
25207;SDS011;13153;52.316;21.166;2022-10-23T01:38:08;34.30;;;20.75;;
25207;SDS011;13153;52.316;21.166;2022-10-23T01:40:47;33.13;;;20.10;;
25207;SDS011;13153;52.316;21.166;2022-10-23T01:43:26;37.38;;;22.17;;
25207;SDS011;13153;52.316;21.166;2022-10-23T01:46:24;37.85;;;21.88;;
25207;SDS011;13153;52.316;21.166;2022-10-23T01:48:52;37.15;;;21.67;;
25207;SDS011;13153;52.316;21.166;2022-10-23T01:51:21;42.78;;;22.60;;
25207;SDS011;13153;52.316;21.166;2022-10-23T01:53:54;41.42;;;22.35;;
25207;SDS011;13153;52.316;21.166;2022-10-23T01:56:25;38.88;;;22.73;;
25207;SDS011;13153;52.316;21.166;2022-10-23T02:01:34;38.33;;;23.15;;
25207;SDS011;13153;52.316;21.166;2022-10-23T02:04:06;40.63;;;23.90;;
25207;SDS011;13153;52.316;21.166;2022-10-23T02:06:36;38.58;;;21.65;;
25207;SDS011;13153;52.316;21.166;2022-10-23T02:09:03;40.45;;;23.95;;
25207;SDS011;13153;52.316;21.166;2022-10-23T02:11:29;39.58;;;23.73;;
25207;SDS011;13153;52.316;21.166;2022-10-23T02:16:53;42.40;;;24.42;;
25207;SDS011;13153;52.316;21.166;2022-10-23T02:23:28;46.00;;;26.40;;
25207;SDS011;13153;52.316;21.166;2022-10-23T02:26:09;44.33;;;25.15;;
25207;SDS011;13153;52.316;21.166;2022-10-23T02:31:48;44.17;;;26.48;;
25207;SDS011;13153;52.316;21.166;2022-10-23T02:34:14;42.03;;;25.27;;
25207;SDS011;13153;52.316;21.166;2022-10-23T02:36:40;44.72;;;26.00;;
25207;SDS011;13153;52.316;21.166;2022-10-23T02:39:06;45.78;;;25.52;;
25207;SDS011;13153;52.316;21.166;2022-10-23T02:47:54;47.50;;;28.05;;
25207;SDS011;13153;52.316;21.166;2022-10-23T02:50:40;51.30;;;29.17;;
25207;SDS011;13153;52.316;21.166;2022-10-23T02:53:30;53.65;;;27.73;;
25207;SDS011;13153;52.316;21.166;2022-10-23T02:56:58;47.30;;;26.85;;
25207;SDS011;13153;52.316;21.166;2022-10-23T02:59:36;50.60;;;28.80;;
25207;SDS011;13153;52.316;21.166;2022-10-23T03:02:16;50.47;;;26.65;;
25207;SDS011;13153;52.316;21.166;2022-10-23T03:04:51;45.70;;;26.48;;
25207;SDS011;13153;52.316;21.166;2022-10-23T03:07:19;46.72;;;27.35;;
25207;SDS011;13153;52.316;21.166;2022-10-23T03:09:46;48.90;;;27.88;;
25207;SDS011;13153;52.316;21.166;2022-10-23T03:12:15;48.00;;;27.77;;
25207;SDS011;13153;52.316;21.166;2022-10-23T03:14:41;47.72;;;26.98;;
25207;SDS011;13153;52.316;21.166;2022-10-23T03:17:06;47.72;;;28.73;;
25207;SDS011;13153;52.316;21.166;2022-10-23T03:19:34;49.30;;;26.48;;
25207;SDS011;13153;52.316;21.166;2022-10-23T03:21:59;46.00;;;26.98;;
25207;SDS011;13153;52.316;21.166;2022-10-23T03:24:25;49.33;;;27.67;;
25207;SDS011;13153;52.316;21.166;2022-10-23T03:26:51;49.67;;;28.15;;
25207;SDS011;13153;52.316;21.166;2022-10-23T03:29:17;55.05;;;28.75;;
25207;SDS011;13153;52.316;21.166;2022-10-23T03:31:43;48.08;;;25.88;;
25207;SDS011;13153;52.316;21.166;2022-10-23T03:34:09;47.40;;;28.15;;
25207;SDS011;13153;52.316;21.166;2022-10-23T03:36:35;47.95;;;28.30;;
25207;SDS011;13153;52.316;21.166;2022-10-23T03:39:02;50.53;;;29.10;;
25207;SDS011;13153;52.316;21.166;2022-10-23T03:41:29;43.67;;;26.40;;
25207;SDS011;13153;52.316;21.166;2022-10-23T03:43:55;50.83;;;27.63;;
25207;SDS011;13153;52.316;21.166;2022-10-23T03:46:21;47.40;;;27.50;;
25207;SDS011;13153;52.316;21.166;2022-10-23T03:48:47;49.05;;;27.85;;
25207;SDS011;13153;52.316;21.166;2022-10-23T03:51:12;45.60;;;27.02;;
25207;SDS011;13153;52.316;21.166;2022-10-23T03:53:38;55.35;;;29.20;;
25207;SDS011;13153;52.316;21.166;2022-10-23T03:56:04;49.25;;;28.45;;
25207;SDS011;13153;52.316;21.166;2022-10-23T03:58:30;51.92;;;29.63;;
25207;SDS011;13153;52.316;21.166;2022-10-23T04:00:56;47.47;;;27.85;;
25207;SDS011;13153;52.316;21.166;2022-10-23T04:03:22;51.65;;;28.55;;
25207;SDS011;13153;52.316;21.166;2022-10-23T04:05:48;52.30;;;29.65;;
25207;SDS011;13153;52.316;21.166;2022-10-23T04:08:14;49.85;;;28.90;;
25207;SDS011;13153;52.316;21.166;2022-10-23T04:10:40;50.65;;;28.45;;
25207;SDS011;13153;52.316;21.166;2022-10-23T04:13:05;52.88;;;29.13;;
25207;SDS011;13153;52.316;21.166;2022-10-23T04:15:31;50.38;;;28.42;;
25207;SDS011;13153;52.316;21.166;2022-10-23T04:17:57;52.25;;;28.48;;
25207;SDS011;13153;52.316;21.166;2022-10-23T04:20:23;51.35;;;29.13;;
25207;SDS011;13153;52.316;21.166;2022-10-23T04:22:48;50.95;;;28.83;;
25207;SDS011;13153;52.316;21.166;2022-10-23T04:25:14;49.65;;;27.88;;
25207;SDS011;13153;52.316;21.166;2022-10-23T04:27:40;46.38;;;27.38;;
25207;SDS011;13153;52.316;21.166;2022-10-23T04:30:07;50.83;;;27.92;;
25207;SDS011;13153;52.316;21.166;2022-10-23T04:32:33;51.35;;;29.15;;
25207;SDS011;13153;52.316;21.166;2022-10-23T04:34:59;50.45;;;26.88;;
25207;SDS011;13153;52.316;21.166;2022-10-23T04:37:25;45.20;;;26.80;;
25207;SDS011;13153;52.316;21.166;2022-10-23T04:39:52;49.95;;;28.67;;
25207;SDS011;13153;52.316;21.166;2022-10-23T04:42:18;51.13;;;28.02;;
25207;SDS011;13153;52.316;21.166;2022-10-23T04:44:44;48.42;;;27.08;;
25207;SDS011;13153;52.316;21.166;2022-10-23T04:47:10;48.13;;;28.58;;
25207;SDS011;13153;52.316;21.166;2022-10-23T04:49:36;52.60;;;28.73;;
25207;SDS011;13153;52.316;21.166;2022-10-23T04:52:01;47.30;;;27.05;;
25207;SDS011;13153;52.316;21.166;2022-10-23T04:54:27;49.17;;;28.38;;
25207;SDS011;13153;52.316;21.166;2022-10-23T04:56:53;42.10;;;26.70;;
25207;SDS011;13153;52.316;21.166;2022-10-23T04:59:19;44.45;;;27.27;;
25207;SDS011;13153;52.316;21.166;2022-10-23T05:01:45;50.13;;;27.92;;
25207;SDS011;13153;52.316;21.166;2022-10-23T05:04:10;48.45;;;30.00;;
25207;SDS011;13153;52.316;21.166;2022-10-23T05:06:37;47.55;;;27.52;;
25207;SDS011;13153;52.316;21.166;2022-10-23T05:09:03;39.97;;;25.02;;
25207;SDS011;13153;52.316;21.166;2022-10-23T05:11:29;47.50;;;26.13;;
25207;SDS011;13153;52.316;21.166;2022-10-23T05:13:55;42.30;;;25.25;;
25207;SDS011;13153;52.316;21.166;2022-10-23T05:19:37;44.88;;;27.40;;
25207;SDS011;13153;52.316;21.166;2022-10-23T05:22:12;45.22;;;26.52;;
25207;SDS011;13153;52.316;21.166;2022-10-23T05:24:39;44.67;;;27.73;;
25207;SDS011;13153;52.316;21.166;2022-10-23T05:27:05;44.83;;;28.55;;
25207;SDS011;13153;52.316;21.166;2022-10-23T05:29:31;46.92;;;27.98;;
25207;SDS011;13153;52.316;21.166;2022-10-23T05:31:58;49.42;;;26.60;;
25207;SDS011;13153;52.316;21.166;2022-10-23T05:34:29;44.70;;;26.58;;
25207;SDS011;13153;52.316;21.166;2022-10-23T05:36:59;49.70;;;28.73;;
25207;SDS011;13153;52.316;21.166;2022-10-23T05:39:27;46.63;;;28.73;;
25207;SDS011;13153;52.316;21.166;2022-10-23T05:41:53;44.03;;;28.08;;
25207;SDS011;13153;52.316;21.166;2022-10-23T05:44:19;46.03;;;28.17;;
25207;SDS011;13153;52.316;21.166;2022-10-23T05:46:45;48.55;;;29.35;;
25207;SDS011;13153;52.316;21.166;2022-10-23T05:49:11;55.80;;;29.83;;
25207;SDS011;13153;52.316;21.166;2022-10-23T05:51:38;48.88;;;29.17;;
25207;SDS011;13153;52.316;21.166;2022-10-23T05:54:04;43.92;;;28.48;;
25207;SDS011;13153;52.316;21.166;2022-10-23T05:56:36;52.17;;;29.10;;
25207;SDS011;13153;52.316;21.166;2022-10-23T05:59:06;51.40;;;29.63;;
25207;SDS011;13153;52.316;21.166;2022-10-23T06:01:33;44.67;;;29.35;;
25207;SDS011;13153;52.316;21.166;2022-10-23T06:03:59;52.20;;;30.98;;
25207;SDS011;13153;52.316;21.166;2022-10-23T06:06:25;52.83;;;31.80;;
25207;SDS011;13153;52.316;21.166;2022-10-23T06:08:51;50.88;;;29.60;;
25207;SDS011;13153;52.316;21.166;2022-10-23T06:11:18;48.00;;;26.88;;
25207;SDS011;13153;52.316;21.166;2022-10-23T06:13:44;49.67;;;28.58;;
25207;SDS011;13153;52.316;21.166;2022-10-23T06:16:13;46.83;;;27.63;;
25207;SDS011;13153;52.316;21.166;2022-10-23T06:18:44;49.05;;;29.10;;
25207;SDS011;13153;52.316;21.166;2022-10-23T06:21:11;57.05;;;34.92;;
25207;SDS011;13153;52.316;21.166;2022-10-23T06:23:38;51.38;;;29.92;;
25207;SDS011;13153;52.316;21.166;2022-10-23T06:26:07;51.25;;;28.35;;
25207;SDS011;13153;52.316;21.166;2022-10-23T06:28:37;49.45;;;28.35;;
25207;SDS011;13153;52.316;21.166;2022-10-23T06:31:04;48.55;;;29.00;;
25207;SDS011;13153;52.316;21.166;2022-10-23T06:33:33;47.17;;;27.08;;
25207;SDS011;13153;52.316;21.166;2022-10-23T06:35:59;47.47;;;27.25;;
25207;SDS011;13153;52.316;21.166;2022-10-23T06:38:26;43.65;;;26.73;;
25207;SDS011;13153;52.316;21.166;2022-10-23T06:40:52;43.45;;;26.02;;
25207;SDS011;13153;52.316;21.166;2022-10-23T06:43:20;45.85;;;25.48;;
25207;SDS011;13153;52.316;21.166;2022-10-23T06:45:46;41.90;;;24.98;;
25207;SDS011;13153;52.316;21.166;2022-10-23T06:48:12;43.05;;;23.75;;
25207;SDS011;13153;52.316;21.166;2022-10-23T06:50:38;39.88;;;24.05;;
25207;SDS011;13153;52.316;21.166;2022-10-23T06:53:04;41.60;;;24.05;;
25207;SDS011;13153;52.316;21.166;2022-10-23T06:55:30;42.63;;;24.00;;
25207;SDS011;13153;52.316;21.166;2022-10-23T06:57:57;45.97;;;24.50;;
25207;SDS011;13153;52.316;21.166;2022-10-23T07:00:23;47.35;;;24.40;;
25207;SDS011;13153;52.316;21.166;2022-10-23T07:02:50;43.33;;;24.65;;
25207;SDS011;13153;52.316;21.166;2022-10-23T07:05:17;44.90;;;26.88;;
25207;SDS011;13153;52.316;21.166;2022-10-23T07:07:44;46.15;;;24.45;;
25207;SDS011;13153;52.316;21.166;2022-10-23T07:10:10;46.03;;;25.40;;
25207;SDS011;13153;52.316;21.166;2022-10-23T07:12:36;43.53;;;23.38;;
25207;SDS011;13153;52.316;21.166;2022-10-23T07:15:02;42.10;;;23.98;;
25207;SDS011;13153;52.316;21.166;2022-10-23T07:17:28;42.70;;;23.48;;
25207;SDS011;13153;52.316;21.166;2022-10-23T07:19:53;45.58;;;25.42;;
25207;SDS011;13153;52.316;21.166;2022-10-23T07:22:19;45.83;;;25.83;;
25207;SDS011;13153;52.316;21.166;2022-10-23T07:24:45;40.80;;;22.60;;
25207;SDS011;13153;52.316;21.166;2022-10-23T07:27:11;43.22;;;23.88;;
25207;SDS011;13153;52.316;21.166;2022-10-23T07:29:36;38.60;;;22.40;;
25207;SDS011;13153;52.316;21.166;2022-10-23T07:32:02;41.22;;;22.85;;
25207;SDS011;13153;52.316;21.166;2022-10-23T07:34:29;41.63;;;21.75;;
25207;SDS011;13153;52.316;21.166;2022-10-23T07:36:56;40.60;;;21.27;;
25207;SDS011;13153;52.316;21.166;2022-10-23T07:39:21;34.60;;;21.00;;
25207;SDS011;13153;52.316;21.166;2022-10-23T07:41:48;38.40;;;20.10;;
25207;SDS011;13153;52.316;21.166;2022-10-23T07:44:14;36.63;;;20.20;;
25207;SDS011;13153;52.316;21.166;2022-10-23T07:46:39;37.42;;;19.67;;
25207;SDS011;13153;52.316;21.166;2022-10-23T07:49:05;34.90;;;19.90;;
25207;SDS011;13153;52.316;21.166;2022-10-23T07:51:31;33.20;;;19.88;;
25207;SDS011;13153;52.316;21.166;2022-10-23T07:53:57;35.80;;;19.63;;
25207;SDS011;13153;52.316;21.166;2022-10-23T07:56:23;35.03;;;19.90;;
25207;SDS011;13153;52.316;21.166;2022-10-23T07:58:55;33.42;;;19.70;;
25207;SDS011;13153;52.316;21.166;2022-10-23T08:03:57;35.78;;;19.38;;
25207;SDS011;13153;52.316;21.166;2022-10-23T08:06:24;39.83;;;21.38;;
25207;SDS011;13153;52.316;21.166;2022-10-23T08:08:51;36.63;;;20.92;;
25207;SDS011;13153;52.316;21.166;2022-10-23T08:11:17;38.35;;;20.38;;
25207;SDS011;13153;52.316;21.166;2022-10-23T08:13:51;35.53;;;19.00;;
25207;SDS011;13153;52.316;21.166;2022-10-23T08:16:19;35.25;;;20.70;;
25207;SDS011;13153;52.316;21.166;2022-10-23T08:18:46;34.28;;;19.67;;
25207;SDS011;13153;52.316;21.166;2022-10-23T08:21:13;35.72;;;19.55;;
25207;SDS011;13153;52.316;21.166;2022-10-23T08:23:40;40.85;;;19.90;;
25207;SDS011;13153;52.316;21.166;2022-10-23T08:26:07;33.88;;;20.00;;
25207;SDS011;13153;52.316;21.166;2022-10-23T08:28:34;35.42;;;18.85;;
25207;SDS011;13153;52.316;21.166;2022-10-23T08:31:05;33.17;;;19.08;;
25207;SDS011;13153;52.316;21.166;2022-10-23T08:33:37;33.80;;;19.33;;
25207;SDS011;13153;52.316;21.166;2022-10-23T08:36:04;31.15;;;17.85;;
25207;SDS011;13153;52.316;21.166;2022-10-23T08:38:43;34.35;;;18.02;;
25207;SDS011;13153;52.316;21.166;2022-10-23T08:41:51;31.45;;;19.15;;
25207;SDS011;13153;52.316;21.166;2022-10-23T08:47:04;34.33;;;20.02;;
25207;SDS011;13153;52.316;21.166;2022-10-23T08:49:59;36.25;;;20.20;;
25207;SDS011;13153;52.316;21.166;2022-10-23T08:52:46;33.83;;;19.42;;
25207;SDS011;13153;52.316;21.166;2022-10-23T08:55:29;34.00;;;19.13;;
25207;SDS011;13153;52.316;21.166;2022-10-23T09:00:32;32.38;;;18.45;;
25207;SDS011;13153;52.316;21.166;2022-10-23T09:03:03;39.53;;;20.05;;
25207;SDS011;13153;52.316;21.166;2022-10-23T09:05:31;35.10;;;18.95;;
25207;SDS011;13153;52.316;21.166;2022-10-23T09:11:26;34.53;;;19.70;;
25207;SDS011;13153;52.316;21.166;2022-10-23T09:14:28;32.97;;;19.48;;
25207;SDS011;13153;52.316;21.166;2022-10-23T09:17:21;32.58;;;18.88;;
25207;SDS011;13153;52.316;21.166;2022-10-23T09:19:58;32.95;;;19.45;;
25207;SDS011;13153;52.316;21.166;2022-10-23T09:22:31;38.70;;;20.80;;
25207;SDS011;13153;52.316;21.166;2022-10-23T09:24:57;35.25;;;19.00;;
25207;SDS011;13153;52.316;21.166;2022-10-23T09:27:23;35.33;;;20.52;;
25207;SDS011;13153;52.316;21.166;2022-10-23T09:29:50;33.67;;;20.13;;
25207;SDS011;13153;52.316;21.166;2022-10-23T09:32:30;38.97;;;21.33;;
25207;SDS011;13153;52.316;21.166;2022-10-23T09:34:59;37.42;;;19.58;;
25207;SDS011;13153;52.316;21.166;2022-10-23T09:37:27;29.50;;;18.38;;
25207;SDS011;13153;52.316;21.166;2022-10-23T09:40:03;35.38;;;19.63;;
25207;SDS011;13153;52.316;21.166;2022-10-23T09:43:01;37.22;;;21.05;;
25207;SDS011;13153;52.316;21.166;2022-10-23T09:45:40;32.05;;;18.95;;
25207;SDS011;13153;52.316;21.166;2022-10-23T09:48:18;34.20;;;19.90;;
25207;SDS011;13153;52.316;21.166;2022-10-23T09:50:57;32.50;;;20.58;;
25207;SDS011;13153;52.316;21.166;2022-10-23T09:53:57;36.72;;;21.30;;
25207;SDS011;13153;52.316;21.166;2022-10-23T09:56:26;35.35;;;20.77;;
25207;SDS011;13153;52.316;21.166;2022-10-23T10:01:44;38.50;;;20.90;;
25207;SDS011;13153;52.316;21.166;2022-10-23T10:04:12;30.55;;;20.23;;
25207;SDS011;13153;52.316;21.166;2022-10-23T10:06:38;37.63;;;22.27;;
25207;SDS011;13153;52.316;21.166;2022-10-23T10:09:06;34.88;;;21.25;;
25207;SDS011;13153;52.316;21.166;2022-10-23T10:37:49;35.45;;;20.67;;
25207;SDS011;13153;52.316;21.166;2022-10-23T10:40:35;35.97;;;20.65;;
25207;SDS011;13153;52.316;21.166;2022-10-23T10:45:48;36.42;;;20.08;;
25207;SDS011;13153;52.316;21.166;2022-10-23T10:51:11;27.67;;;18.08;;
25207;SDS011;13153;52.316;21.166;2022-10-23T10:54:03;35.08;;;20.17;;
25207;SDS011;13153;52.316;21.166;2022-10-23T10:56:46;29.08;;;19.30;;
25207;SDS011;13153;52.316;21.166;2022-10-23T10:59:19;29.80;;;18.70;;
25207;SDS011;13153;52.316;21.166;2022-10-23T11:07:12;32.13;;;20.52;;
25207;SDS011;13153;52.316;21.166;2022-10-23T11:09:44;35.17;;;20.73;;
25207;SDS011;13153;52.316;21.166;2022-10-23T11:12:17;33.90;;;20.00;;
25207;SDS011;13153;52.316;21.166;2022-10-23T11:14:51;33.58;;;20.67;;
25207;SDS011;13153;52.316;21.166;2022-10-23T11:17:18;29.25;;;19.77;;
25207;SDS011;13153;52.316;21.166;2022-10-23T11:19:48;29.73;;;19.60;;
25207;SDS011;13153;52.316;21.166;2022-10-23T11:26:11;27.88;;;16.00;;
25207;SDS011;13153;52.316;21.166;2022-10-23T11:34:32;25.10;;;15.38;;
25207;SDS011;13153;52.316;21.166;2022-10-23T11:37:34;20.17;;;13.55;;
25207;SDS011;13153;52.316;21.166;2022-10-23T11:58:46;22.30;;;12.98;;
25207;SDS011;13153;52.316;21.166;2022-10-23T12:06:39;16.60;;;12.15;;
25207;SDS011;13153;52.316;21.166;2022-10-23T12:12:01;21.20;;;12.80;;
25207;SDS011;13153;52.316;21.166;2022-10-23T12:14:38;17.42;;;11.60;;
25207;SDS011;13153;52.316;21.166;2022-10-23T12:22:16;22.58;;;12.70;;
25207;SDS011;13153;52.316;21.166;2022-10-23T12:30:54;21.13;;;13.00;;
25207;SDS011;13153;52.316;21.166;2022-10-23T12:40:21;19.45;;;12.70;;
25207;SDS011;13153;52.316;21.166;2022-10-23T12:42:54;20.10;;;13.70;;
25207;SDS011;13153;52.316;21.166;2022-10-23T12:45:30;20.25;;;13.45;;
25207;SDS011;13153;52.316;21.166;2022-10-23T12:48:04;17.40;;;13.02;;
25207;SDS011;13153;52.316;21.166;2022-10-23T12:50:31;21.73;;;13.05;;
25207;SDS011;13153;52.316;21.166;2022-10-23T12:53:00;18.98;;;12.95;;
25207;SDS011;13153;52.316;21.166;2022-10-23T12:55:30;34.67;;;22.85;;
25207;SDS011;13153;52.316;21.166;2022-10-23T12:58:28;20.83;;;15.48;;
25207;SDS011;13153;52.316;21.166;2022-10-23T13:01:00;20.13;;;14.45;;
25207;SDS011;13153;52.316;21.166;2022-10-23T13:03:29;23.73;;;14.98;;
25207;SDS011;13153;52.316;21.166;2022-10-23T13:05:58;21.23;;;14.32;;
25207;SDS011;13153;52.316;21.166;2022-10-23T13:08:31;23.45;;;15.93;;
25207;SDS011;13153;52.316;21.166;2022-10-23T13:11:04;22.70;;;16.60;;
25207;SDS011;13153;52.316;21.166;2022-10-23T13:13:33;22.80;;;15.02;;
25207;SDS011;13153;52.316;21.166;2022-10-23T13:15:59;21.58;;;15.82;;
25207;SDS011;13153;52.316;21.166;2022-10-23T13:18:25;28.15;;;16.25;;
25207;SDS011;13153;52.316;21.166;2022-10-23T13:26:01;22.58;;;17.13;;
25207;SDS011;13153;52.316;21.166;2022-10-23T13:28:43;23.75;;;16.17;;
25207;SDS011;13153;52.316;21.166;2022-10-23T13:33:37;29.08;;;18.45;;
25207;SDS011;13153;52.316;21.166;2022-10-23T13:38:41;24.85;;;17.67;;
25207;SDS011;13153;52.316;21.166;2022-10-23T13:41:14;24.30;;;17.27;;
25207;SDS011;13153;52.316;21.166;2022-10-23T13:43:43;23.80;;;17.40;;
25207;SDS011;13153;52.316;21.166;2022-10-23T13:46:15;23.27;;;17.45;;
25207;SDS011;13153;52.316;21.166;2022-10-23T13:48:43;29.30;;;17.88;;
25207;SDS011;13153;52.316;21.166;2022-10-23T13:51:14;23.70;;;16.60;;
25207;SDS011;13153;52.316;21.166;2022-10-23T13:53:46;26.00;;;17.90;;
25207;SDS011;13153;52.316;21.166;2022-10-23T13:56:13;24.27;;;17.02;;
25207;SDS011;13153;52.316;21.166;2022-10-23T13:58:41;25.70;;;17.40;;
25207;SDS011;13153;52.316;21.166;2022-10-23T14:01:20;30.17;;;19.55;;
25207;SDS011;13153;52.316;21.166;2022-10-23T14:04:07;29.98;;;20.48;;
25207;SDS011;13153;52.316;21.166;2022-10-23T14:06:35;25.00;;;16.98;;
25207;SDS011;13153;52.316;21.166;2022-10-23T14:09:05;22.35;;;15.57;;
25207;SDS011;13153;52.316;21.166;2022-10-23T14:11:37;26.35;;;16.20;;
25207;SDS011;13153;52.316;21.166;2022-10-23T14:14:03;26.48;;;16.10;;
25207;SDS011;13153;52.316;21.166;2022-10-23T14:16:29;23.02;;;16.17;;
25207;SDS011;13153;52.316;21.166;2022-10-23T14:18:55;22.02;;;15.43;;
25207;SDS011;13153;52.316;21.166;2022-10-23T14:21:21;26.08;;;16.35;;
25207;SDS011;13153;52.316;21.166;2022-10-23T14:23:50;22.42;;;15.73;;
25207;SDS011;13153;52.316;21.166;2022-10-23T14:26:19;22.02;;;14.88;;
25207;SDS011;13153;52.316;21.166;2022-10-23T14:28:50;22.35;;;15.57;;
25207;SDS011;13153;52.316;21.166;2022-10-23T14:31:20;21.35;;;15.43;;
25207;SDS011;13153;52.316;21.166;2022-10-23T14:33:50;27.73;;;15.65;;
25207;SDS011;13153;52.316;21.166;2022-10-23T14:36:20;23.08;;;15.35;;
25207;SDS011;13153;52.316;21.166;2022-10-23T14:38:47;27.10;;;16.38;;
25207;SDS011;13153;52.316;21.166;2022-10-23T14:41:14;25.80;;;17.73;;
25207;SDS011;13153;52.316;21.166;2022-10-23T14:43:41;23.50;;;16.83;;
25207;SDS011;13153;52.316;21.166;2022-10-23T14:46:08;23.90;;;17.05;;
25207;SDS011;13153;52.316;21.166;2022-10-23T14:48:37;30.90;;;22.55;;
25207;SDS011;13153;52.316;21.166;2022-10-23T14:51:04;31.25;;;22.17;;
25207;SDS011;13153;52.316;21.166;2022-10-23T14:53:39;30.27;;;19.85;;
25207;SDS011;13153;52.316;21.166;2022-10-23T14:56:06;27.08;;;18.13;;
25207;SDS011;13153;52.316;21.166;2022-10-23T14:58:32;24.05;;;18.02;;
25207;SDS011;13153;52.316;21.166;2022-10-23T15:00:58;25.30;;;18.63;;
25207;SDS011;13153;52.316;21.166;2022-10-23T15:03:28;26.42;;;18.45;;
25207;SDS011;13153;52.316;21.166;2022-10-23T15:05:54;28.48;;;18.70;;
25207;SDS011;13153;52.316;21.166;2022-10-23T15:08:20;28.60;;;19.25;;
25207;SDS011;13153;52.316;21.166;2022-10-23T15:10:47;29.08;;;17.75;;
25207;SDS011;13153;52.316;21.166;2022-10-23T15:13:14;28.73;;;17.77;;
25207;SDS011;13153;52.316;21.166;2022-10-23T15:15:40;27.02;;;17.70;;
25207;SDS011;13153;52.316;21.166;2022-10-23T15:18:05;27.17;;;18.88;;
25207;SDS011;13153;52.316;21.166;2022-10-23T15:20:31;27.35;;;18.45;;
25207;SDS011;13153;52.316;21.166;2022-10-23T15:22:57;25.13;;;18.13;;
25207;SDS011;13153;52.316;21.166;2022-10-23T15:25:24;27.05;;;18.73;;
25207;SDS011;13153;52.316;21.166;2022-10-23T15:27:50;29.92;;;19.52;;
25207;SDS011;13153;52.316;21.166;2022-10-23T15:30:16;29.90;;;19.60;;
25207;SDS011;13153;52.316;21.166;2022-10-23T15:32:42;28.25;;;19.13;;
25207;SDS011;13153;52.316;21.166;2022-10-23T15:35:08;24.77;;;18.45;;
25207;SDS011;13153;52.316;21.166;2022-10-23T15:37:34;25.88;;;18.83;;
25207;SDS011;13153;52.316;21.166;2022-10-23T15:40:00;28.98;;;19.60;;
25207;SDS011;13153;52.316;21.166;2022-10-23T15:42:26;32.08;;;22.98;;
25207;SDS011;13153;52.316;21.166;2022-10-23T15:44:52;33.45;;;21.92;;
25207;SDS011;13153;52.316;21.166;2022-10-23T15:47:18;31.02;;;20.50;;
25207;SDS011;13153;52.316;21.166;2022-10-23T15:49:43;28.92;;;20.58;;
25207;SDS011;13153;52.316;21.166;2022-10-23T15:52:09;29.60;;;20.75;;
25207;SDS011;13153;52.316;21.166;2022-10-23T15:54:35;25.42;;;19.65;;
25207;SDS011;13153;52.316;21.166;2022-10-23T15:57:01;29.58;;;20.95;;
25207;SDS011;13153;52.316;21.166;2022-10-23T15:59:28;61.05;;;39.55;;
25207;SDS011;13153;52.316;21.166;2022-10-23T16:01:56;40.08;;;28.15;;
25207;SDS011;13153;52.316;21.166;2022-10-23T16:04:22;36.88;;;24.45;;
25207;SDS011;13153;52.316;21.166;2022-10-23T16:06:48;32.03;;;23.25;;
25207;SDS011;13153;52.316;21.166;2022-10-23T16:09:15;31.08;;;22.80;;
25207;SDS011;13153;52.316;21.166;2022-10-23T16:11:41;32.13;;;22.48;;
25207;SDS011;13153;52.316;21.166;2022-10-23T16:14:10;32.65;;;22.98;;
25207;SDS011;13153;52.316;21.166;2022-10-23T16:16:39;34.17;;;23.20;;
25207;SDS011;13153;52.316;21.166;2022-10-23T16:19:06;36.00;;;25.08;;
25207;SDS011;13153;52.316;21.166;2022-10-23T16:21:34;41.30;;;24.92;;
25207;SDS011;13153;52.316;21.166;2022-10-23T16:24:01;44.22;;;28.58;;
25207;SDS011;13153;52.316;21.166;2022-10-23T16:26:31;38.50;;;23.52;;
25207;SDS011;13153;52.316;21.166;2022-10-23T16:28:59;29.92;;;21.83;;
25207;SDS011;13153;52.316;21.166;2022-10-23T16:31:28;35.85;;;22.75;;
25207;SDS011;13153;52.316;21.166;2022-10-23T16:33:55;33.75;;;21.88;;
25207;SDS011;13153;52.316;21.166;2022-10-23T16:36:24;32.38;;;21.30;;
25207;SDS011;13153;52.316;21.166;2022-10-23T16:38:50;30.20;;;21.05;;
25207;SDS011;13153;52.316;21.166;2022-10-23T16:41:16;31.00;;;22.10;;
25207;SDS011;13153;52.316;21.166;2022-10-23T16:43:42;30.05;;;22.65;;
25207;SDS011;13153;52.316;21.166;2022-10-23T16:46:18;35.83;;;22.40;;
25207;SDS011;13153;52.316;21.166;2022-10-23T16:48:46;35.40;;;23.50;;